createdAt,value
2018-08-19T00:00:57.439Z,18.89
2018-08-19T00:09:18.486Z,18.85
2018-08-19T00:17:39.543Z,18.81
2018-08-19T00:26:00.854Z,18.81
2018-08-19T00:34:21.868Z,18.63
2018-08-19T00:42:42.971Z,18.56
2018-08-19T00:51:04.398Z,18.52
2018-08-19T00:59:25.496Z,18.50
2018-08-19T01:07:46.520Z,18.41
2018-08-19T01:16:07.542Z,18.31
2018-08-19T01:24:28.580Z,18.26
2018-08-19T01:32:49.607Z,18.20
2018-08-19T01:41:10.713Z,18.20
2018-08-19T01:49:31.726Z,18.19
2018-08-19T01:57:52.767Z,18.08
2018-08-19T02:06:13.833Z,18.04
2018-08-19T02:20:38.597Z,17.95
2018-08-19T02:29:00.031Z,17.90
2018-08-19T02:37:21.063Z,17.86
2018-08-19T02:45:42.147Z,17.82
2018-08-19T02:54:03.163Z,17.78
2018-08-19T03:02:24.259Z,17.80
2018-08-19T03:10:45.399Z,17.71
2018-08-19T03:19:06.537Z,17.68
2018-08-19T03:27:27.579Z,17.71
2018-08-19T03:35:48.575Z,17.77
2018-08-19T03:44:09.604Z,17.88
2018-08-19T03:52:30.722Z,17.98
2018-08-19T04:00:51.761Z,18.12
2018-08-19T04:09:12.774Z,18.11
2018-08-19T04:17:33.810Z,18.14
2018-08-19T04:25:54.873Z,18.25
2018-08-19T04:34:16.940Z,18.36
2018-08-19T04:42:37.961Z,18.47
2018-08-19T04:50:58.982Z,18.55
2018-08-19T04:59:19.999Z,18.61
2018-08-19T05:07:41.034Z,18.74
2018-08-19T05:16:02.033Z,18.83
2018-08-19T05:24:23.060Z,18.97
2018-08-19T05:32:44.078Z,19.15
2018-08-19T05:41:05.095Z,19.30
2018-08-19T05:49:26.158Z,19.49
2018-08-19T05:57:47.174Z,19.64
2018-08-19T06:06:08.227Z,19.86
2018-08-19T06:14:29.246Z,19.98
2018-08-19T06:22:52.283Z,20.20
2018-08-19T06:31:13.556Z,20.37
2018-08-19T06:39:34.575Z,20.53
2018-08-19T06:47:56.646Z,20.58
2018-08-19T06:56:17.689Z,20.74
2018-08-19T07:04:38.705Z,21.03
2018-08-19T07:12:59.732Z,21.11
2018-08-19T07:21:20.796Z,21.43
2018-08-19T07:29:41.880Z,21.71
2018-08-19T07:38:02.901Z,21.81
2018-08-19T07:46:23.959Z,22.01
2018-08-19T07:54:44.979Z,22.16
2018-08-19T08:03:05.988Z,22.24
2018-08-19T08:11:27.003Z,22.60
2018-08-19T08:19:48.153Z,23.01
2018-08-19T08:28:09.286Z,23.89
2018-08-19T08:36:30.322Z,24.43
2018-08-19T08:44:51.363Z,24.58
2018-08-19T08:53:12.431Z,24.60
2018-08-19T09:01:34.490Z,24.68
2018-08-19T09:09:56.554Z,25.05
2018-08-19T09:18:17.625Z,24.74
2018-08-19T09:26:38.626Z,24.18
2018-08-19T09:34:59.659Z,24.18
2018-08-19T09:43:20.817Z,24.28
2018-08-19T09:51:42.910Z,25.08
2018-08-19T10:00:03.935Z,25.92
2018-08-19T10:08:24.954Z,26.41
2018-08-19T10:16:45.952Z,25.27
2018-08-19T10:25:06.953Z,25.31
2018-08-19T10:33:27.988Z,25.13
2018-08-19T10:41:48.988Z,25.55
2018-08-19T10:50:09.996Z,25.69
2018-08-19T10:58:32.179Z,25.68
2018-08-19T11:06:53.212Z,25.84
2018-08-19T11:15:14.259Z,26.23
2018-08-19T11:23:35.280Z,26.38
2018-08-19T11:31:56.389Z,26.53
2018-08-19T11:40:17.497Z,26.63
2018-08-19T11:50:42.475Z,27.57
2018-08-19T11:59:03.611Z,28.48
2018-08-19T12:07:24.646Z,29.28
2018-08-19T12:15:45.687Z,30.69
2018-08-19T12:24:06.696Z,32.41
2018-08-19T12:32:28.800Z,33.70
2018-08-19T12:40:50.453Z,34.84
2018-08-19T12:49:11.519Z,36.08
2018-08-19T12:57:32.551Z,37.18
2018-08-19T13:05:53.890Z,37.78
2018-08-19T13:14:14.915Z,38.74
2018-08-19T13:22:35.989Z,39.05
2018-08-19T13:30:57.514Z,40.58
2018-08-19T13:39:18.634Z,39.95
2018-08-19T13:47:39.693Z,40.84
2018-08-19T13:56:00.822Z,40.59
2018-08-19T14:04:21.870Z,40.98
2018-08-19T14:12:42.894Z,41.94
2018-08-19T14:21:04.171Z,42.26
2018-08-19T14:29:25.318Z,42.40
2018-08-19T14:37:46.455Z,43.21
2018-08-19T14:46:07.919Z,44.26
2018-08-19T14:54:28.939Z,43.07
2018-08-19T15:02:51.002Z,43.59
2018-08-19T15:11:12.059Z,43.79
2018-08-19T15:19:33.083Z,44.81
2018-08-19T15:27:54.088Z,43.48
2018-08-19T15:36:15.130Z,43.47
2018-08-19T15:44:36.510Z,43.18
2018-08-19T15:52:57.565Z,42.85
2018-08-19T16:03:20.254Z,43.14
2018-08-19T16:11:41.274Z,41.29
2018-08-19T16:20:02.353Z,39.42
2018-08-19T16:28:23.409Z,37.10
2018-08-19T16:36:44.454Z,35.03
2018-08-19T16:45:05.507Z,33.21
2018-08-19T16:53:27.909Z,31.88
2018-08-19T17:01:50.207Z,31.12
2018-08-19T17:10:15.113Z,31.04
2018-08-19T17:18:36.047Z,30.96
2018-08-19T17:26:57.201Z,30.61
2018-08-19T17:35:18.150Z,30.08
2018-08-19T17:43:39.212Z,29.98
2018-08-19T17:52:00.258Z,29.48
2018-08-19T18:00:21.333Z,29.00
2018-08-19T18:08:42.421Z,28.61
2018-08-19T18:17:03.458Z,28.24
2018-08-19T18:25:24.592Z,27.92
2018-08-19T18:33:45.509Z,27.66
2018-08-19T18:42:09.943Z,27.31
2018-08-19T18:50:31.006Z,26.99
2018-08-19T18:58:52.051Z,26.52
2018-08-19T19:07:15.142Z,26.12
2018-08-19T19:15:36.141Z,25.63
2018-08-19T19:32:24.033Z,24.86
2018-08-19T19:40:45.060Z,24.84
2018-08-19T19:49:06.075Z,24.66
2018-08-19T19:57:27.098Z,24.33
2018-08-19T20:05:48.158Z,23.96
2018-08-19T20:14:09.178Z,23.76
2018-08-19T20:22:34.897Z,23.47
2018-08-19T20:39:24.436Z,23.39
2018-08-19T20:47:45.884Z,23.64
2018-08-19T20:56:06.898Z,23.69
2018-08-19T21:04:27.923Z,23.68
2018-08-19T21:12:52.307Z,23.65
2018-08-19T21:21:13.350Z,23.85
2018-08-19T21:29:34.389Z,23.96
2018-08-19T21:37:55.421Z,24.10
2018-08-19T21:46:21.127Z,24.19
2018-08-19T21:57:34.243Z,24.29
2018-08-19T22:05:55.266Z,24.31
2018-08-19T22:14:16.662Z,24.30
2018-08-19T22:22:37.681Z,24.38
2018-08-19T22:31:00.804Z,24.44
2018-08-19T22:39:22.876Z,24.41
2018-08-19T22:56:10.393Z,24.41
2018-08-19T23:04:31.429Z,24.45
2018-08-19T23:21:19.587Z,24.60
2018-08-19T23:29:40.606Z,24.68
2018-08-19T23:38:01.647Z,24.68
2018-08-19T23:47:44.117Z,24.69
2018-08-19T23:56:05.142Z,24.62
